createdAt,value
2019-02-09T03:37:01.343Z,100.00
2019-02-09T03:42:17.264Z,100.00
2019-02-09T03:47:45.658Z,100.00
2019-02-09T03:53:47.250Z,100.00
2019-02-09T04:01:32.137Z,100.00
2019-02-09T04:05:20.519Z,98.26
2019-02-09T04:11:07.545Z,97.49
2019-02-09T04:17:22.961Z,94.36
2019-02-09T04:33:45.982Z,87.64
2019-02-09T04:39:59.507Z,87.25
2019-02-09T04:57:05.078Z,93.47
2019-02-09T05:02:03.690Z,99.56
2019-02-09T05:06:59.584Z,100.00
2019-02-09T05:11:58.655Z,100.00
2019-02-09T05:16:56.617Z,100.00
2019-02-09T05:21:52.628Z,100.00
2019-02-09T05:26:48.855Z,100.00
2019-02-09T05:31:44.856Z,100.00
2019-02-09T05:36:44.371Z,100.00
2019-02-09T05:41:40.328Z,100.00
2019-02-09T05:46:36.352Z,100.00
2019-02-09T05:51:34.912Z,100.00
2019-02-09T05:56:30.891Z,100.00
2019-02-09T06:01:31.971Z,100.00
2019-02-09T06:06:25.583Z,100.00
2019-02-09T06:11:21.408Z,100.00
2019-02-09T06:16:17.312Z,100.00
2019-02-09T06:21:16.069Z,100.00
2019-02-09T06:26:14.158Z,100.00
2019-02-09T06:31:13.245Z,100.00
2019-02-09T06:36:09.351Z,100.00
2019-02-09T06:41:16.170Z,100.00
2019-02-09T06:46:16.350Z,100.00
2019-02-09T06:51:15.119Z,100.00
2019-02-09T06:56:14.025Z,100.00
2019-02-09T07:01:09.929Z,100.00
2019-02-09T07:06:06.655Z,100.00
2019-02-09T07:11:02.855Z,100.00
2019-02-09T07:15:59.115Z,100.00
2019-02-09T07:20:54.927Z,100.00
2019-02-09T07:25:50.992Z,100.00
2019-02-09T07:30:49.096Z,100.00
2019-02-09T07:35:45.124Z,100.00
2019-02-09T07:40:41.006Z,100.00
2019-02-09T07:45:37.208Z,100.00
2019-02-09T07:50:33.290Z,100.00
2019-02-09T07:55:29.335Z,100.00
2019-02-09T08:00:28.218Z,100.00
2019-02-09T08:05:26.832Z,100.00
2019-02-09T08:10:26.292Z,100.00
2019-02-09T08:15:27.755Z,100.00
2019-02-09T08:20:25.978Z,100.00
2019-02-09T08:25:24.780Z,100.00
2019-02-09T08:30:28.117Z,100.00
2019-02-09T08:35:23.989Z,100.00
2019-02-09T08:40:20.012Z,97.55
2019-02-09T08:45:18.739Z,98.84
2019-02-09T08:50:28.257Z,99.68
2019-02-09T08:55:24.641Z,100.00
2019-02-09T09:00:24.339Z,100.00
2019-02-09T09:05:20.407Z,100.00
2019-02-09T09:10:17.540Z,100.00
2019-02-09T09:15:18.672Z,100.00
2019-02-09T09:20:27.878Z,96.34
2019-02-09T09:25:24.089Z,95.96
2019-02-09T09:30:23.108Z,96.87
2019-02-09T09:35:21.501Z,98.82
2019-02-09T09:40:27.013Z,97.81
2019-02-09T09:45:26.736Z,95.43
2019-02-09T09:50:25.757Z,94.00
2019-02-09T09:55:21.886Z,97.39
2019-02-09T10:00:19.310Z,96.84
2019-02-09T10:05:15.957Z,98.17
2019-02-09T10:10:15.919Z,99.64
2019-02-09T10:15:15.172Z,95.89
2019-02-09T10:20:15.833Z,93.81
2019-02-09T10:25:14.870Z,88.97
2019-02-09T10:30:15.452Z,89.98
2019-02-09T10:35:17.177Z,88.96
2019-02-09T10:40:23.098Z,86.61
2019-02-09T10:45:25.277Z,84.76
2019-02-09T10:50:37.546Z,85.80
2019-02-09T10:55:37.274Z,85.26
2019-02-09T11:00:59.161Z,84.23
2019-02-09T11:06:05.683Z,83.00
2019-02-09T11:11:06.214Z,83.33
2019-02-09T11:16:02.373Z,79.93
2019-02-09T11:20:58.558Z,81.56
2019-02-09T11:26:00.402Z,82.04
2019-02-09T11:31:00.675Z,79.96
2019-02-09T11:36:02.236Z,79.33
2019-02-09T11:40:58.267Z,79.55
2019-02-09T11:45:57.126Z,79.97
2019-02-09T11:50:55.379Z,78.36
2019-02-09T11:55:52.204Z,79.78
2019-02-09T12:00:56.383Z,76.73
2019-02-09T12:05:58.178Z,78.50
2019-02-09T12:10:58.577Z,79.25
2019-02-09T12:16:07.472Z,79.07
2019-02-09T12:21:06.460Z,78.78
2019-02-09T12:26:04.613Z,79.84
2019-02-09T12:31:02.725Z,77.33
2019-02-09T12:36:06.485Z,74.07
2019-02-09T12:41:03.871Z,76.92
2019-02-09T12:46:06.565Z,77.01
2019-02-09T12:51:03.161Z,75.67
2019-02-09T12:56:03.644Z,72.95
2019-02-09T13:01:08.775Z,73.17
2019-02-09T13:06:14.014Z,74.51
2019-02-09T13:11:14.582Z,77.72
2019-02-09T13:16:12.229Z,77.14
2019-02-09T13:21:12.803Z,77.72
2019-02-09T13:26:30.401Z,75.97
2019-02-09T13:31:49.781Z,75.66
2019-02-09T13:36:48.010Z,76.25
2019-02-09T13:41:51.913Z,70.39
2019-02-09T13:46:54.719Z,70.99
2019-02-09T13:51:52.718Z,69.24
2019-02-09T13:57:23.122Z,66.92
2019-02-09T14:02:28.489Z,66.42
2019-02-09T14:07:30.388Z,76.37
2019-02-09T14:12:38.203Z,78.80
2019-02-09T14:17:47.659Z,82.37
2019-02-09T14:23:00.130Z,85.40
2019-02-09T14:28:09.343Z,82.06
2019-02-09T14:33:25.074Z,82.37
2019-02-09T14:38:30.195Z,85.29
2019-02-09T14:44:08.457Z,81.85
2019-02-09T14:49:39.511Z,82.04
2019-02-09T14:55:03.318Z,81.26
2019-02-09T15:00:15.935Z,84.47
2019-02-09T15:05:36.801Z,84.37
2019-02-09T15:10:59.192Z,83.31
2019-02-09T15:16:19.396Z,84.44
2019-02-09T15:21:50.231Z,84.56
2019-02-09T15:26:52.807Z,87.53
2019-02-09T15:31:56.490Z,86.39
2019-02-09T15:37:01.862Z,86.64
2019-02-09T15:42:00.139Z,87.76
2019-02-09T15:47:06.417Z,88.82
2019-02-09T15:52:43.665Z,88.72
2019-02-09T15:57:49.586Z,88.61
2019-02-09T16:02:59.847Z,88.08
2019-02-09T16:08:17.233Z,90.76
2019-02-09T16:13:28.119Z,87.54
2019-02-09T16:18:53.618Z,88.21
2019-02-09T16:24:42.068Z,90.68
2019-02-09T16:29:51.533Z,92.95
2019-02-09T16:34:51.286Z,91.59
2019-02-09T16:40:11.830Z,92.69
2019-02-09T16:45:12.905Z,90.01
2019-02-09T16:50:35.480Z,93.23
2019-02-09T16:55:48.352Z,92.12
2019-02-09T17:01:15.485Z,91.77
2019-02-09T17:06:54.280Z,90.62
2019-02-09T17:11:53.889Z,92.42
2019-02-09T17:16:52.629Z,90.27
2019-02-09T17:21:53.437Z,92.79
2019-02-09T17:27:12.325Z,93.23
2019-02-09T17:32:42.473Z,94.18
2019-02-09T17:38:09.977Z,94.97
2019-02-09T17:43:33.286Z,95.39
2019-02-09T17:55:00.713Z,95.50
2019-02-09T18:06:31.187Z,94.78
2019-02-09T18:11:40.641Z,98.24
2019-02-09T18:23:17.962Z,100.00
2019-02-09T18:28:20.270Z,99.00
2019-02-09T18:33:44.452Z,99.78
2019-02-09T18:39:04.650Z,100.00
2019-02-09T18:44:41.711Z,100.00
2019-02-09T18:50:17.194Z,100.00
2019-02-09T18:55:42.480Z,100.00
2019-02-09T19:09:27.392Z,100.00
2019-02-09T19:14:48.850Z,100.00
2019-02-09T19:33:03.209Z,98.54
2019-02-09T19:38:49.950Z,97.43
2019-02-09T19:52:01.578Z,96.26
2019-02-09T19:58:33.947Z,100.00
2019-02-09T20:03:20.820Z,99.75
2019-02-09T20:15:09.446Z,100.00
2019-02-09T20:20:26.801Z,100.00
2019-02-09T20:37:25.744Z,100.00
2019-02-09T20:42:46.503Z,100.00
2019-02-09T20:47:54.141Z,100.00
2019-02-09T20:53:12.267Z,99.72
2019-02-09T20:58:21.903Z,100.00
2019-02-09T21:03:52.406Z,100.00
2019-02-09T21:21:37.579Z,100.00
2019-02-09T21:27:33.962Z,100.00
2019-02-09T21:33:07.205Z,100.00
2019-02-09T21:44:33.292Z,100.00
2019-02-09T21:56:56.932Z,100.00
2019-02-09T22:01:57.406Z,100.00
2019-02-09T22:07:32.896Z,100.00
2019-02-09T22:12:37.012Z,100.00
2019-02-09T22:17:44.597Z,100.00
2019-02-09T22:22:40.256Z,100.00
2019-02-09T22:28:10.549Z,100.00
2019-02-09T22:33:24.206Z,100.00
2019-02-09T22:39:53.693Z,100.00
2019-02-09T22:45:59.083Z,100.00
2019-02-09T22:52:26.081Z,100.00
2019-02-09T22:56:42.798Z,100.00
2019-02-09T23:01:52.324Z,100.00
2019-02-09T23:07:27.891Z,100.00
2019-02-09T23:12:25.549Z,100.00
2019-02-09T23:23:22.995Z,100.00
2019-02-09T23:28:32.023Z,100.00
2019-02-09T23:33:42.458Z,100.00
2019-02-09T23:38:48.966Z,100.00
2019-02-09T23:43:56.850Z,100.00
2019-02-09T23:49:10.655Z,100.00
2019-02-09T23:54:19.411Z,100.00
2019-02-09T23:59:22.107Z,100.00
